Time;durP1;ratioP1;P1;durP2;ratioP2;P2;SDS_P1;SDS_P2;PMS_P1;PMS_P2;Temp;Humidity;BMP_temperature;BMP_pressure;BME280_temperature;BME280_humidity;BME280_pressure;Samples;Min_cycle;Max_cycle;Signal;HPM_P1;HPM_P2
2023/05/01 00:00:52;;;;;;;7.88;4.88;;;;;;;;;;4971307;28;20041;-68
2023/05/01 00:03:18;;;;;;;6.72;4.45;;;;;;;;;;4973021;28;20023;-68
2023/05/01 00:05:44;;;;;;;12.82;5.05;;;;;;;;;;4978549;28;20039;-68
2023/05/01 00:08:10;;;;;;;8.23;4.65;;;;;;;;;;4993637;28;20022;-68
2023/05/01 00:10:36;;;;;;;7.68;4.35;;;;;;;;;;4993661;28;20429;-68
2023/05/01 00:13:03;;;;;;;5.72;4.10;;;;;;;;;;4993610;28;20487;-68
2023/05/01 00:15:29;;;;;;;5.70;3.90;;;;;;;;;;4993908;28;20030;-68
2023/05/01 00:17:55;;;;;;;7.85;5.00;;;;;;;;;;4992317;28;20109;-68
2023/05/01 00:20:22;;;;;;;8.23;4.50;;;;;;;;;;4993428;28;20117;-68
2023/05/01 00:22:48;;;;;;;7.80;4.82;;;;;;;;;;4988957;28;20031;-68
2023/05/01 00:25:14;;;;;;;6.63;4.20;;;;;;;;;;4974313;28;20050;-68
2023/05/01 00:27:39;;;;;;;6.57;3.95;;;;;;;;;;4974029;28;20097;-67
2023/05/01 00:30:06;;;;;;;6.45;3.92;;;;;;;;;;4972599;28;20052;-68
2023/05/01 00:32:33;;;;;;;10.07;4.88;;;;;;;;;;4974177;28;20030;-68
2023/05/01 00:34:59;;;;;;;10.45;4.97;;;;;;;;;;4972954;28;20630;-68
2023/05/01 00:37:25;;;;;;;7.63;4.35;;;;;;;;;;4987661;28;20078;-68
2023/05/01 00:39:51;;;;;;;9.30;4.50;;;;;;;;;;4993046;28;20046;-67
2023/05/01 00:42:16;;;;;;;8.35;4.18;;;;;;;;;;4993294;28;20110;-69
2023/05/01 00:44:42;;;;;;;8.13;4.88;;;;;;;;;;4991917;28;20030;-68
2023/05/01 00:47:08;;;;;;;5.85;4.13;;;;;;;;;;4992326;28;20033;-69
2023/05/01 00:49:34;;;;;;;7.00;3.78;;;;;;;;;;4991905;28;20050;-68
2023/05/01 00:52:00;;;;;;;5.70;4.32;;;;;;;;;;4992167;28;20026;-68
2023/05/01 00:54:27;;;;;;;5.43;4.22;;;;;;;;;;4993660;28;20032;-68
2023/05/01 00:56:53;;;;;;;6.95;4.55;;;;;;;;;;4992928;28;20477;-68
2023/05/01 00:59:20;;;;;;;7.32;4.60;;;;;;;;;;5007825;28;20045;-68
2023/05/01 01:01:46;;;;;;;7.43;4.60;;;;;;;;;;4991688;28;20027;-68
2023/05/01 01:04:12;;;;;;;6.05;5.07;;;;;;;;;;4978032;28;20034;-68
2023/05/01 01:06:44;;;;;;;9.13;4.88;;;;;;;;;;4980204;28;20086;-68
2023/05/01 01:09:20;;;;;;;8.18;5.07;;;;;;;;;;4985284;28;20400;-68
2023/05/01 01:11:58;;;;;;;7.40;5.38;;;;;;;;;;4993360;28;20030;-68
2023/05/01 01:14:31;;;;;;;8.35;6.22;;;;;;;;;;4992380;28;20448;-68
2023/05/01 01:17:01;;;;;;;12.93;6.10;;;;;;;;;;4992795;28;20038;-67
2023/05/01 01:19:48;;;;;;;9.30;6.55;;;;;;;;;;4978373;28;20027;-68
2023/05/01 01:22:19;;;;;;;9.25;6.80;;;;;;;;;;4988950;28;20125;-68
2023/05/01 01:24:57;;;;;;;11.00;6.95;;;;;;;;;;4975327;28;20030;-68
2023/05/01 01:27:29;;;;;;;10.43;7.32;;;;;;;;;;4972507;28;20047;-68
2023/05/01 01:30:03;;;;;;;9.38;6.22;;;;;;;;;;4973750;28;20477;-68
2023/05/01 01:32:47;;;;;;;8.18;6.53;;;;;;;;;;4974771;28;20475;-68
2023/05/01 01:35:25;;;;;;;10.27;6.30;;;;;;;;;;4975065;28;20037;-68
2023/05/01 01:38:05;;;;;;;9.93;6.45;;;;;;;;;;4992988;28;20038;-69
2023/05/01 01:40:43;;;;;;;8.50;6.43;;;;;;;;;;4972645;28;20035;-67
2023/05/01 01:43:12;;;;;;;8.23;6.45;;;;;;;;;;4956767;28;20039;-68
2023/05/01 01:45:42;;;;;;;11.13;6.93;;;;;;;;;;4972445;28;20031;-69
2023/05/01 01:48:13;;;;;;;7.95;6.63;;;;;;;;;;4972151;28;20053;-68
2023/05/01 01:50:42;;;;;;;14.90;6.90;;;;;;;;;;4975575;28;20030;-68
2023/05/01 01:53:10;;;;;;;8.95;6.85;;;;;;;;;;4987596;28;20412;-68
2023/05/01 01:55:39;;;;;;;9.15;6.50;;;;;;;;;;4972187;28;20078;-67
2023/05/01 01:58:07;;;;;;;8.73;5.88;;;;;;;;;;4973455;28;20389;-68
2023/05/01 02:00:34;;;;;;;9.48;6.18;;;;;;;;;;5004062;28;20118;-67
2023/05/01 02:03:02;;;;;;;8.43;5.93;;;;;;;;;;4972117;28;20338;-69
2023/05/01 02:05:30;;;;;;;10.25;6.50;;;;;;;;;;4973768;28;20229;-68
2023/05/01 02:07:57;;;;;;;9.52;6.35;;;;;;;;;;4991304;28;20485;-68
2023/05/01 02:10:24;;;;;;;9.52;5.43;;;;;;;;;;5006766;28;20042;-68
2023/05/01 02:12:52;;;;;;;7.80;5.68;;;;;;;;;;4992034;28;20057;-68
2023/05/01 02:15:18;;;;;;;9.25;5.85;;;;;;;;;;5043159;28;20511;-68
2023/05/01 02:17:44;;;;;;;8.20;5.60;;;;;;;;;;5010792;28;20443;-68
2023/05/01 02:20:12;;;;;;;10.73;6.20;;;;;;;;;;4992563;28;20034;-67
2023/05/01 02:22:42;;;;;;;8.05;6.40;;;;;;;;;;5011021;28;20423;-68
2023/05/01 02:25:10;;;;;;;8.75;6.38;;;;;;;;;;5008374;28;20401;-68
2023/05/01 02:27:39;;;;;;;8.02;6.53;;;;;;;;;;4995957;28;20050;-68
2023/05/01 02:30:07;;;;;;;8.38;6.18;;;;;;;;;;4990479;28;20030;-67
2023/05/01 02:32:32;;;;;;;11.10;7.45;;;;;;;;;;5007197;28;20053;-69
2023/05/01 02:34:59;;;;;;;11.68;7.07;;;;;;;;;;4990685;28;20069;-68
2023/05/01 02:37:25;;;;;;;9.73;7.03;;;;;;;;;;4988263;28;20504;-69
2023/05/01 02:39:51;;;;;;;7.53;5.65;;;;;;;;;;5023402;28;20066;-68
2023/05/01 02:42:20;;;;;;;13.52;6.60;;;;;;;;;;4991749;28;20023;-69
2023/05/01 02:45:01;;;;;;;7.93;5.97;;;;;;;;;;4991389;28;20038;-68
2023/05/01 02:47:30;;;;;;;9.20;6.90;;;;;;;;;;5023300;28;20109;-68
2023/05/01 02:49:59;;;;;;;8.65;6.15;;;;;;;;;;4990300;28;20089;-68
2023/05/01 02:52:26;;;;;;;11.18;7.05;;;;;;;;;;5008602;28;20404;-69
2023/05/01 02:55:05;;;;;;;9.73;7.05;;;;;;;;;;5028164;28;20046;-69
2023/05/01 02:57:34;;;;;;;9.00;6.88;;;;;;;;;;5023280;28;20042;-68
2023/05/01 02:59:59;;;;;;;9.48;6.70;;;;;;;;;;4992684;28;20030;-68
2023/05/01 03:02:25;;;;;;;11.75;7.18;;;;;;;;;;5025976;28;20507;-68
2023/05/01 03:04:51;;;;;;;9.68;7.10;;;;;;;;;;4991814;28;20492;-68
2023/05/01 03:07:17;;;;;;;11.55;7.72;;;;;;;;;;4990320;28;20030;-68
2023/05/01 03:09:42;;;;;;;11.55;7.97;;;;;;;;;;4989939;28;20038;-68
2023/05/01 03:12:08;;;;;;;8.40;7.50;;;;;;;;;;4991762;28;20022;-69
2023/05/01 03:14:34;;;;;;;9.90;7.35;;;;;;;;;;4991677;28;20037;-69
2023/05/01 03:17:00;;;;;;;11.45;8.30;;;;;;;;;;4991971;28;20489;-69
2023/05/01 03:19:25;;;;;;;11.45;7.95;;;;;;;;;;5022802;28;20034;-69
2023/05/01 03:21:51;;;;;;;15.07;8.40;;;;;;;;;;4991561;28;20027;-68
2023/05/01 03:24:17;;;;;;;10.20;7.85;;;;;;;;;;4990406;28;20041;-69
2023/05/01 03:26:43;;;;;;;11.63;8.65;;;;;;;;;;4986869;28;20549;-69
2023/05/01 03:29:12;;;;;;;12.40;8.60;;;;;;;;;;4989480;28;20117;-69
2023/05/01 03:31:38;;;;;;;11.07;8.80;;;;;;;;;;4989896;28;20022;-68
2023/05/01 03:34:07;;;;;;;12.57;8.43;;;;;;;;;;4990632;28;20034;-68
2023/05/01 03:36:33;;;;;;;9.82;8.02;;;;;;;;;;4990375;28;20049;-70
2023/05/01 03:38:58;;;;;;;10.25;9.00;;;;;;;;;;5009681;28;20039;-69
2023/05/01 03:41:43;;;;;;;12.55;8.45;;;;;;;;;;4995806;28;20132;-69
2023/05/01 03:44:19;;;;;;;11.07;9.05;;;;;;;;;;5027035;28;20097;-68
2023/05/01 03:46:45;;;;;;;12.93;7.85;;;;;;;;;;4994262;28;20026;-69
2023/05/01 03:49:17;;;;;;;10.60;8.32;;;;;;;;;;4994343;28;20022;-69
2023/05/01 03:51:46;;;;;;;10.73;8.10;;;;;;;;;;4994287;28;20034;-69
2023/05/01 03:54:12;;;;;;;10.77;8.32;;;;;;;;;;4994152;28;20502;-70
2023/05/01 03:57:04;;;;;;;9.90;8.57;;;;;;;;;;4992353;28;20041;-69
2023/05/01 03:59:29;;;;;;;9.65;7.88;;;;;;;;;;4995140;28;20030;-69
2023/05/01 04:01:55;;;;;;;11.88;9.65;;;;;;;;;;4993982;28;20026;-68
2023/05/01 04:04:22;;;;;;;11.73;8.70;;;;;;;;;;4994010;28;20030;-70
2023/05/01 04:06:54;;;;;;;14.18;9.43;;;;;;;;;;4993701;28;20105;-68
2023/05/01 04:09:20;;;;;;;13.43;8.93;;;;;;;;;;4995538;28;20543;-69
2023/05/01 04:11:46;;;;;;;11.25;8.75;;;;;;;;;;4992078;28;20054;-69
2023/05/01 04:14:12;;;;;;;15.07;9.25;;;;;;;;;;4993723;28;20396;-69
2023/05/01 04:16:39;;;;;;;11.15;9.27;;;;;;;;;;4993053;28;20471;-69
2023/05/01 04:19:05;;;;;;;12.95;9.25;;;;;;;;;;4993351;28;20038;-69
2023/05/01 04:21:33;;;;;;;13.00;8.98;;;;;;;;;;4993480;28;20026;-68
2023/05/01 04:23:59;;;;;;;15.63;9.55;;;;;;;;;;5026591;28;20117;-69
2023/05/01 04:26:25;;;;;;;10.40;9.30;;;;;;;;;;4993585;28;20060;-68
2023/05/01 04:28:51;;;;;;;11.98;9.18;;;;;;;;;;5026232;28;20526;-70
2023/05/01 04:31:21;;;;;;;11.18;8.82;;;;;;;;;;4993210;28;20057;-69
2023/05/01 04:33:46;;;;;;;12.77;9.85;;;;;;;;;;4994587;28;20527;-69
2023/05/01 04:36:13;;;;;;;19.70;10.10;;;;;;;;;;4993765;28;20018;-68
2023/05/01 04:38:40;;;;;;;13.63;10.10;;;;;;;;;;4993330;28;20584;-68
2023/05/01 04:41:06;;;;;;;11.43;9.88;;;;;;;;;;4993162;28;20127;-68
2023/05/01 04:43:32;;;;;;;13.23;9.82;;;;;;;;;;4993297;28;20161;-69
2023/05/01 04:45:58;;;;;;;11.77;8.68;;;;;;;;;;4992389;28;20112;-69
2023/05/01 04:48:24;;;;;;;11.82;8.75;;;;;;;;;;4992637;28;20413;-69
2023/05/01 04:50:49;;;;;;;12.07;8.82;;;;;;;;;;5001634;28;20493;-69
2023/05/01 04:53:16;;;;;;;11.55;8.65;;;;;;;;;;4993056;28;20034;-68
2023/05/01 04:55:42;;;;;;;10.57;8.00;;;;;;;;;;4992862;28;20476;-69
2023/05/01 04:58:13;;;;;;;9.90;8.70;;;;;;;;;;4992920;28;20129;-69
2023/05/01 05:00:39;;;;;;;12.88;8.57;;;;;;;;;;5025402;28;20034;-69
2023/05/01 05:03:07;;;;;;;11.20;8.27;;;;;;;;;;4992716;28;20037;-69
2023/05/01 05:05:34;;;;;;;10.18;7.95;;;;;;;;;;4992919;28;20117;-71
2023/05/01 05:08:01;;;;;;;13.57;9.20;;;;;;;;;;4991520;28;20018;-71
2023/05/01 05:10:35;;;;;;;11.15;8.18;;;;;;;;;;4990758;28;20041;-70
2023/05/01 05:13:14;;;;;;;12.68;8.07;;;;;;;;;;4992345;28;20026;-72
2023/05/01 05:15:40;;;;;;;11.73;7.78;;;;;;;;;;4992364;28;20471;-70
2023/05/01 05:18:08;;;;;;;10.07;7.65;;;;;;;;;;4992240;28;20022;-70
2023/05/01 05:20:38;;;;;;;9.93;8.00;;;;;;;;;;4992160;28;20038;-71
2023/05/01 05:23:03;;;;;;;9.23;7.43;;;;;;;;;;4992222;28;20034;-69
2023/05/01 05:25:29;;;;;;;9.95;6.90;;;;;;;;;;4992036;28;20029;-71
2023/05/01 05:27:55;;;;;;;9.23;6.85;;;;;;;;;;4992589;28;20499;-71
2023/05/01 05:30:20;;;;;;;9.70;6.55;;;;;;;;;;4992287;28;20014;-69
2023/05/01 05:32:47;;;;;;;8.57;6.75;;;;;;;;;;4993184;28;20045;-70
2023/05/01 05:35:13;;;;;;;9.60;7.10;;;;;;;;;;4992461;28;20401;-68
2023/05/01 05:37:39;;;;;;;10.20;7.40;;;;;;;;;;4993231;28;20056;-70
2023/05/01 05:40:05;;;;;;;10.43;7.65;;;;;;;;;;4991803;28;20022;-70
2023/05/01 05:42:37;;;;;;;9.32;7.75;;;;;;;;;;4989451;28;20045;-70
2023/05/01 05:45:06;;;;;;;10.20;7.32;;;;;;;;;;5022852;28;20112;-72
2023/05/01 05:47:32;;;;;;;10.18;7.38;;;;;;;;;;4990436;28;20476;-71
2023/05/01 05:49:58;;;;;;;9.25;7.22;;;;;;;;;;4991462;28;20022;-70
2023/05/01 05:52:24;;;;;;;13.60;7.32;;;;;;;;;;4991457;28;20028;-71
2023/05/01 05:54:50;;;;;;;13.32;7.43;;;;;;;;;;4992478;28;20123;-70
2023/05/01 05:57:16;;;;;;;9.75;7.85;;;;;;;;;;4991767;28;20129;-72
2023/05/01 05:59:47;;;;;;;8.57;7.03;;;;;;;;;;4990664;28;20045;-70
2023/05/01 06:02:14;;;;;;;9.45;6.97;;;;;;;;;;5020286;28;20548;-70
2023/05/01 06:04:39;;;;;;;11.32;7.35;;;;;;;;;;4973024;28;20118;-70
2023/05/01 06:07:05;;;;;;;8.38;6.75;;;;;;;;;;4990942;28;20411;-71
2023/05/01 06:09:31;;;;;;;10.50;7.78;;;;;;;;;;4990080;28;20048;-70
2023/05/01 06:11:57;;;;;;;10.70;6.50;;;;;;;;;;4991976;28;20042;-71
2023/05/01 06:14:23;;;;;;;10.90;6.45;;;;;;;;;;5023597;28;20065;-70
2023/05/01 06:16:50;;;;;;;10.60;6.80;;;;;;;;;;5023446;28;20053;-69
2023/05/01 06:19:15;;;;;;;8.85;6.05;;;;;;;;;;4990136;28;20325;-70
2023/05/01 06:21:43;;;;;;;8.30;5.65;;;;;;;;;;4972560;28;20381;-71
2023/05/01 06:24:09;;;;;;;11.27;6.75;;;;;;;;;;4990443;28;20033;-71
2023/05/01 06:26:44;;;;;;;12.35;5.97;;;;;;;;;;4990291;28;20040;-71
2023/05/01 06:29:10;;;;;;;9.52;7.18;;;;;;;;;;4989583;28;20034;-71
2023/05/01 06:31:35;;;;;;;8.13;5.80;;;;;;;;;;4990425;28;20026;-71
2023/05/01 06:34:01;;;;;;;8.27;5.80;;;;;;;;;;4988787;28;20133;-72
2023/05/01 06:36:33;;;;;;;9.25;6.20;;;;;;;;;;4989255;28;20113;-70
2023/05/01 06:38:59;;;;;;;6.93;5.15;;;;;;;;;;5021542;28;20134;-71
2023/05/01 06:41:25;;;;;;;9.45;5.05;;;;;;;;;;4989834;28;20022;-70
2023/05/01 06:43:52;;;;;;;5.90;5.07;;;;;;;;;;4988761;28;20413;-72
2023/05/01 06:46:17;;;;;;;7.72;5.25;;;;;;;;;;4988869;28;20041;-71
2023/05/01 06:48:43;;;;;;;8.75;5.35;;;;;;;;;;4989690;28;20045;-70
2023/05/01 06:51:14;;;;;;;11.30;5.65;;;;;;;;;;4974003;28;20022;-71
2023/05/01 06:53:40;;;;;;;6.68;5.40;;;;;;;;;;4991837;28;20408;-72
2023/05/01 06:56:07;;;;;;;8.23;5.53;;;;;;;;;;4990613;28;20026;-71
2023/05/01 06:58:33;;;;;;;10.05;5.93;;;;;;;;;;4989490;28;20042;-71
2023/05/01 07:00:58;;;;;;;10.27;7.75;;;;;;;;;;4989920;28;20038;-70
2023/05/01 07:03:26;;;;;;;10.23;5.25;;;;;;;;;;4990835;28;20050;-70
2023/05/01 07:05:53;;;;;;;9.90;5.65;;;;;;;;;;4990264;28;20072;-70
2023/05/01 07:08:19;;;;;;;12.10;6.82;;;;;;;;;;4991070;28;20065;-70
2023/05/01 07:10:45;;;;;;;8.95;5.65;;;;;;;;;;4990222;28;20073;-72
2023/05/01 07:13:11;;;;;;;7.80;5.68;;;;;;;;;;5010119;28;20030;-71
2023/05/01 07:15:37;;;;;;;7.57;4.25;;;;;;;;;;4996069;28;20038;-72
2023/05/01 07:18:04;;;;;;;7.07;4.28;;;;;;;;;;4995713;28;20131;-71
2023/05/01 07:20:31;;;;;;;6.65;4.72;;;;;;;;;;4996629;28;20106;-70
2023/05/01 07:22:57;;;;;;;8.77;5.50;;;;;;;;;;4996764;28;20034;-71
2023/05/01 07:25:23;;;;;;;10.25;4.50;;;;;;;;;;4996278;28;20038;-70
2023/05/01 07:27:49;;;;;;;9.07;6.05;;;;;;;;;;4996285;28;20085;-70
2023/05/01 07:30:15;;;;;;;7.90;4.70;;;;;;;;;;5027333;28;20034;-70
2023/05/01 07:32:41;;;;;;;9.45;4.70;;;;;;;;;;4995308;28;20540;-71
2023/05/01 07:35:07;;;;;;;6.65;4.60;;;;;;;;;;4994402;28;20500;-71
2023/05/01 07:37:33;;;;;;;6.43;4.10;;;;;;;;;;4995499;28;20127;-71
2023/05/01 07:39:58;;;;;;;9.15;5.47;;;;;;;;;;4995212;28;20039;-72
2023/05/01 07:42:27;;;;;;;6.45;4.35;;;;;;;;;;4994627;28;20018;-74
2023/05/01 07:44:53;;;;;;;6.55;4.40;;;;;;;;;;4995346;28;20042;-75
2023/05/01 07:47:18;;;;;;;5.55;4.10;;;;;;;;;;4995235;28;20112;-73
2023/05/01 07:49:44;;;;;;;10.80;4.93;;;;;;;;;;4995486;28;20034;-71
2023/05/01 07:52:10;;;;;;;5.75;4.35;;;;;;;;;;4994971;28;20096;-71
2023/05/01 07:54:36;;;;;;;11.95;5.03;;;;;;;;;;4994740;28;20041;-71
2023/05/01 07:57:03;;;;;;;6.97;4.38;;;;;;;;;;4994502;28;20022;-72
2023/05/01 07:59:28;;;;;;;10.15;4.65;;;;;;;;;;4994792;28;20038;-71
2023/05/01 08:01:55;;;;;;;7.50;4.88;;;;;;;;;;4995725;28;20531;-72
2023/05/01 08:04:23;;;;;;;5.85;4.45;;;;;;;;;;4994238;28;20056;-71
2023/05/01 08:06:50;;;;;;;5.93;4.30;;;;;;;;;;4994383;28;20035;-71
2023/05/01 08:09:16;;;;;;;7.82;4.50;;;;;;;;;;4994656;28;20027;-71
2023/05/01 08:11:42;;;;;;;4.95;3.47;;;;;;;;;;4994796;28;20072;-71
2023/05/01 08:14:08;;;;;;;7.45;3.72;;;;;;;;;;4995125;28;20113;-71
2023/05/01 08:16:36;;;;;;;9.65;4.93;;;;;;;;;;4993006;28;20042;-71
2023/05/01 08:19:02;;;;;;;6.75;3.92;;;;;;;;;;4994456;28;20105;-71
2023/05/01 08:21:28;;;;;;;5.97;4.30;;;;;;;;;;4994466;28;20101;-73
2023/05/01 08:23:55;;;;;;;5.80;3.67;;;;;;;;;;4993605;28;20042;-72
2023/05/01 08:26:21;;;;;;;7.38;3.90;;;;;;;;;;4993802;28;20392;-71
2023/05/01 08:28:47;;;;;;;7.70;4.20;;;;;;;;;;4994300;28;20094;-71
2023/05/01 08:31:13;;;;;;;5.85;3.60;;;;;;;;;;4993168;28;20492;-69
2023/05/01 08:33:40;;;;;;;6.53;3.70;;;;;;;;;;4994650;28;20034;-71
2023/05/01 08:36:08;;;;;;;6.43;4.28;;;;;;;;;;4994743;28;20028;-72
2023/05/01 08:38:38;;;;;;;6.40;4.55;;;;;;;;;;4994224;28;20038;-71
2023/05/01 08:41:03;;;;;;;7.25;4.90;;;;;;;;;;4994201;28;20488;-71
2023/05/01 08:43:30;;;;;;;6.80;4.47;;;;;;;;;;5009137;28;20030;-71
2023/05/01 08:46:02;;;;;;;10.30;5.28;;;;;;;;;;4994592;28;20113;-71
2023/05/01 08:48:31;;;;;;;9.52;4.60;;;;;;;;;;4994326;28;20038;-70
2023/05/01 08:50:59;;;;;;;8.18;5.57;;;;;;;;;;4994320;28;20023;-71
2023/05/01 08:53:26;;;;;;;8.63;4.53;;;;;;;;;;4994590;28;20095;-70
2023/05/01 08:55:55;;;;;;;6.88;4.47;;;;;;;;;;4992792;28;20023;-71
2023/05/01 08:58:28;;;;;;;9.23;5.88;;;;;;;;;;4994299;28;20188;-71
2023/05/01 09:00:56;;;;;;;6.72;5.03;;;;;;;;;;4991991;28;20054;-70
2023/05/01 09:03:23;;;;;;;9.50;5.22;;;;;;;;;;4991740;28;20035;-70
2023/05/01 09:05:50;;;;;;;9.68;6.07;;;;;;;;;;4985594;28;20027;-70
2023/05/01 09:08:15;;;;;;;7.13;3.83;;;;;;;;;;4993454;28;20109;-70
2023/05/01 09:10:45;;;;;;;7.35;4.50;;;;;;;;;;4992560;28;20150;-70
2023/05/01 09:13:11;;;;;;;11.75;6.93;;;;;;;;;;4991067;28;20384;-69
2023/05/01 09:15:37;;;;;;;10.18;5.78;;;;;;;;;;4990193;28;20038;-70
2023/05/01 09:18:03;;;;;;;8.45;5.60;;;;;;;;;;4993044;28;20072;-70
2023/05/01 09:20:29;;;;;;;15.43;9.55;;;;;;;;;;4992561;28;20392;-72
2023/05/01 09:22:58;;;;;;;6.82;4.90;;;;;;;;;;4986892;28;20049;-70
2023/05/01 09:25:24;;;;;;;5.70;4.05;;;;;;;;;;4991302;28;20112;-71
2023/05/01 09:27:50;;;;;;;8.40;5.00;;;;;;;;;;4993246;28;20422;-70
2023/05/01 09:30:35;;;;;;;9.00;4.90;;;;;;;;;;4993740;28;20032;-70
2023/05/01 09:33:11;;;;;;;10.10;5.22;;;;;;;;;;4993411;28;20100;-70
2023/05/01 09:35:51;;;;;;;6.93;4.38;;;;;;;;;;4993178;28;20038;-70
2023/05/01 09:38:19;;;;;;;9.77;7.00;;;;;;;;;;5025158;28;20070;-72
2023/05/01 09:40:45;;;;;;;6.68;4.35;;;;;;;;;;4992615;28;20057;-71
2023/05/01 09:43:11;;;;;;;9.10;4.35;;;;;;;;;;4986707;28;20038;-70
2023/05/01 09:45:38;;;;;;;12.45;5.05;;;;;;;;;;5001833;28;20045;-71
2023/05/01 09:48:09;;;;;;;9.60;4.25;;;;;;;;;;4990732;28;20056;-70
2023/05/01 09:50:35;;;;;;;12.68;7.47;;;;;;;;;;4990950;28;20038;-71
2023/05/01 09:53:03;;;;;;;8.07;5.45;;;;;;;;;;4982223;28;20113;-70
2023/05/01 09:55:30;;;;;;;6.72;3.83;;;;;;;;;;4990891;28;20037;-71
2023/05/01 09:57:57;;;;;;;7.78;4.63;;;;;;;;;;4991481;28;20018;-70
2023/05/01 10:00:24;;;;;;;7.28;4.10;;;;;;;;;;4992109;28;20030;-71
2023/05/01 10:02:50;;;;;;;10.25;3.90;;;;;;;;;;4990165;28;20014;-71
2023/05/01 10:05:17;;;;;;;10.30;4.80;;;;;;;;;;4992139;28;20411;-70
2023/05/01 10:08:15;;;;;;;10.13;6.65;;;;;;;;;;4991398;28;20065;-70
2023/05/01 10:10:45;;;;;;;20.88;14.77;;;;;;;;;;4992005;28;20468;-69
2023/05/01 10:13:15;;;;;;;7.05;4.15;;;;;;;;;;4990871;28;20034;-70
2023/05/01 10:15:41;;;;;;;4.40;3.40;;;;;;;;;;4990599;28;20050;-70
2023/05/01 10:18:10;;;;;;;6.47;3.60;;;;;;;;;;4992360;28;20057;-70
2023/05/01 10:20:37;;;;;;;10.10;4.20;;;;;;;;;;4988303;28;20026;-69
2023/05/01 10:23:02;;;;;;;7.93;5.50;;;;;;;;;;5018644;28;20237;-70
2023/05/01 10:25:30;;;;;;;8.18;5.65;;;;;;;;;;4991922;28;20392;-70
2023/05/01 10:27:56;;;;;;;6.60;4.32;;;;;;;;;;4991766;28;20120;-70
2023/05/01 10:30:22;;;;;;;5.50;3.78;;;;;;;;;;4990600;28;20022;-70
2023/05/01 10:32:48;;;;;;;10.15;5.30;;;;;;;;;;4990595;28;20033;-70
2023/05/01 10:35:20;;;;;;;9.13;5.65;;;;;;;;;;4991705;28;20404;-71
2023/05/01 10:38:18;;;;;;;5.65;4.10;;;;;;;;;;4987809;28;20159;-71
2023/05/01 10:40:48;;;;;;;11.10;7.80;;;;;;;;;;4989665;28;20543;-73
2023/05/01 10:43:15;;;;;;;7.60;5.05;;;;;;;;;;4991565;28;20117;-71
2023/05/01 10:45:46;;;;;;;7.25;3.35;;;;;;;;;;4989934;28;20104;-71
2023/05/01 10:48:31;;;;;;;7.07;4.47;;;;;;;;;;4990935;28;20018;-71
2023/05/01 10:51:13;;;;;;;14.50;8.80;;;;;;;;;;4989433;28;20031;-70
2023/05/01 10:53:40;;;;;;;7.45;3.65;;;;;;;;;;4990850;28;20058;-70
2023/05/01 10:56:26;;;;;;;3.60;3.00;;;;;;;;;;4991672;28;20509;-70
2023/05/01 10:58:52;;;;;;;8.30;4.22;;;;;;;;;;4993494;28;20101;-70
2023/05/01 11:01:36;;;;;;;6.07;3.50;;;;;;;;;;4991749;28;20440;-70
2023/05/01 11:04:21;;;;;;;5.70;3.92;;;;;;;;;;4991664;28;20045;-70
2023/05/01 11:07:03;;;;;;;4.82;3.03;;;;;;;;;;5019952;28;20385;-72
2023/05/01 11:09:37;;;;;;;5.68;3.40;;;;;;;;;;4989199;28;20061;-70
2023/05/01 11:12:03;;;;;;;12.60;6.78;;;;;;;;;;4990377;28;20022;-70
2023/05/01 11:15:02;;;;;;;6.70;3.53;;;;;;;;;;4988034;28;20106;-71
2023/05/01 11:17:43;;;;;;;6.63;3.80;;;;;;;;;;4991375;28;20058;-71
2023/05/01 11:20:24;;;;;;;14.57;6.65;;;;;;;;;;4985178;28;20034;-71
2023/05/01 11:22:58;;;;;;;5.93;3.47;;;;;;;;;;4989527;28;20034;-71
2023/05/01 11:25:30;;;;;;;6.00;3.63;;;;;;;;;;4991790;28;20049;-71
2023/05/01 11:27:57;;;;;;;6.78;3.47;;;;;;;;;;5006611;28;20511;-72
2023/05/01 11:30:23;;;;;;;6.43;3.28;;;;;;;;;;4990790;28;20771;-71
2023/05/01 11:32:50;;;;;;;4.90;3.17;;;;;;;;;;4991476;28;20033;-71
2023/05/01 11:35:20;;;;;;;9.15;3.97;;;;;;;;;;4990822;28;20026;-71
2023/05/01 11:37:47;;;;;;;6.35;4.38;;;;;;;;;;4988095;28;20042;-70
2023/05/01 11:40:23;;;;;;;4.32;3.30;;;;;;;;;;4991250;28;20365;-72
2023/05/01 11:42:50;;;;;;;9.25;5.28;;;;;;;;;;4989150;28;20037;-71
2023/05/01 11:45:18;;;;;;;4.97;2.90;;;;;;;;;;4987252;28;20029;-70
2023/05/01 11:47:44;;;;;;;6.88;3.83;;;;;;;;;;4991239;28;20030;-71
2023/05/01 11:50:10;;;;;;;5.43;3.20;;;;;;;;;;4991315;28;20469;-71
2023/05/01 11:52:52;;;;;;;7.05;4.10;;;;;;;;;;4990697;28;20030;-70
2023/05/01 11:55:31;;;;;;;9.70;6.50;;;;;;;;;;4991566;28;20069;-70
2023/05/01 11:57:58;;;;;;;8.27;4.55;;;;;;;;;;4990324;28;20038;-70
2023/05/01 12:00:30;;;;;;;5.15;3.17;;;;;;;;;;4992164;28;20046;-70
2023/05/01 12:03:07;;;;;;;6.75;3.35;;;;;;;;;;4995270;28;20046;-72
2023/05/01 12:05:35;;;;;;;7.35;3.50;;;;;;;;;;4994257;28;20050;-71
2023/05/01 12:08:14;;;;;;;5.45;3.20;;;;;;;;;;4995314;28;20026;-70
2023/05/01 12:10:42;;;;;;;5.70;3.15;;;;;;;;;;4994368;28;20505;-71
2023/05/01 12:13:10;;;;;;;3.78;2.97;;;;;;;;;;4995730;28;20023;-71
2023/05/01 12:15:41;;;;;;;9.57;3.58;;;;;;;;;;4994463;28;20511;-70
2023/05/01 12:18:07;;;;;;;6.57;3.10;;;;;;;;;;4994113;28;20208;-69
2023/05/01 12:20:35;;;;;;;5.22;3.00;;;;;;;;;;4994304;28;20026;-69
2023/05/01 12:23:03;;;;;;;5.72;3.40;;;;;;;;;;4992940;28;20045;-71
2023/05/01 12:25:30;;;;;;;4.63;3.33;;;;;;;;;;4993351;28;20133;-70
2023/05/01 12:27:56;;;;;;;5.53;3.30;;;;;;;;;;4994644;28;20063;-70
2023/05/01 12:30:26;;;;;;;5.55;3.65;;;;;;;;;;4994671;28;20022;-70
2023/05/01 12:32:52;;;;;;;6.55;3.80;;;;;;;;;;4993738;28;20121;-71
2023/05/01 12:35:18;;;;;;;6.25;3.58;;;;;;;;;;5009571;28;20109;-71
2023/05/01 12:37:44;;;;;;;5.85;3.92;;;;;;;;;;4994694;28;20485;-70
2023/05/01 12:40:13;;;;;;;18.35;12.70;;;;;;;;;;4986800;28;20112;-70
2023/05/01 12:42:40;;;;;;;17.85;11.63;;;;;;;;;;4994490;28;20209;-71
2023/05/01 12:45:08;;;;;;;6.32;3.30;;;;;;;;;;4994224;28;20022;-70
2023/05/01 12:47:37;;;;;;;7.13;5.30;;;;;;;;;;4994819;28;20046;-72
2023/05/01 12:50:04;;;;;;;8.00;4.53;;;;;;;;;;4993368;28;20117;-69
2023/05/01 12:52:31;;;;;;;4.72;3.67;;;;;;;;;;4994413;28;20150;-71
2023/05/01 12:55:05;;;;;;;6.43;3.40;;;;;;;;;;4994298;28;20108;-70
2023/05/01 12:57:31;;;;;;;6.75;3.85;;;;;;;;;;4994034;28;20030;-70
2023/05/01 13:00:05;;;;;;;4.75;3.20;;;;;;;;;;4992012;28;20102;-71
2023/05/01 13:02:32;;;;;;;6.80;3.97;;;;;;;;;;4994137;28;20026;-71
2023/05/01 13:05:10;;;;;;;5.57;3.95;;;;;;;;;;5025392;28;20097;-70
2023/05/01 13:07:38;;;;;;;5.03;3.72;;;;;;;;;;4993454;28;20037;-70
2023/05/01 13:10:05;;;;;;;6.00;3.50;;;;;;;;;;4993081;28;20018;-70
2023/05/01 13:12:32;;;;;;;5.63;3.38;;;;;;;;;;4992192;28;20030;-70
2023/05/01 13:14:58;;;;;;;5.35;3.40;;;;;;;;;;4992084;28;20038;-70
2023/05/01 13:17:26;;;;;;;6.68;3.47;;;;;;;;;;4992605;28;20041;-71
2023/05/01 13:19:58;;;;;;;6.28;3.15;;;;;;;;;;4993478;28;20022;-70
2023/05/01 13:22:33;;;;;;;5.40;3.80;;;;;;;;;;4993539;28;20054;-70
2023/05/01 13:24:59;;;;;;;4.80;3.72;;;;;;;;;;4993575;28;20516;-69
2023/05/01 13:27:24;;;;;;;5.93;3.35;;;;;;;;;;4993774;28;20014;-69
2023/05/01 13:29:57;;;;;;;7.13;3.42;;;;;;;;;;4993303;28;20492;-69
2023/05/01 13:32:24;;;;;;;4.38;2.88;;;;;;;;;;4993625;28;20045;-70
2023/05/01 13:34:50;;;;;;;4.60;2.95;;;;;;;;;;4993647;28;20026;-68
2023/05/01 13:37:16;;;;;;;4.03;3.13;;;;;;;;;;4993425;28;20050;-69
2023/05/01 13:39:43;;;;;;;3.90;2.95;;;;;;;;;;4993496;28;20034;-70
2023/05/01 13:42:21;;;;;;;4.15;2.85;;;;;;;;;;4992028;28;20125;-71
2023/05/01 13:44:51;;;;;;;4.18;2.95;;;;;;;;;;4988704;28;20038;-70
2023/05/01 13:47:17;;;;;;;12.95;3.88;;;;;;;;;;4990399;28;20025;-69
2023/05/01 13:49:44;;;;;;;4.63;2.95;;;;;;;;;;4990508;28;20069;-69
2023/05/01 13:52:17;;;;;;;5.38;3.03;;;;;;;;;;4991467;28;20062;-69
2023/05/01 13:54:44;;;;;;;5.88;3.08;;;;;;;;;;4990174;28;20113;-69
2023/05/01 13:57:10;;;;;;;3.20;2.70;;;;;;;;;;4990953;28;20034;-70
2023/05/01 13:59:39;;;;;;;9.02;3.28;;;;;;;;;;4988447;28;20516;-69
2023/05/01 14:02:25;;;;;;;4.25;3.00;;;;;;;;;;4989759;28;20033;-71
2023/05/01 14:04:51;;;;;;;5.05;3.30;;;;;;;;;;4988749;28;20536;-70
2023/05/01 14:07:19;;;;;;;3.75;2.50;;;;;;;;;;4986451;28;20116;-70
2023/05/01 14:09:58;;;;;;;5.30;2.88;;;;;;;;;;4990551;28;20066;-70
2023/05/01 14:12:31;;;;;;;4.93;2.90;;;;;;;;;;4985546;28;20442;-70
2023/05/01 14:14:58;;;;;;;5.22;3.05;;;;;;;;;;4991927;28;20041;-69
2023/05/01 14:17:35;;;;;;;5.03;3.17;;;;;;;;;;4987810;28;20469;-69
2023/05/01 14:20:01;;;;;;;3.78;2.35;;;;;;;;;;4991234;28;20392;-68
2023/05/01 14:22:53;;;;;;;5.78;2.38;;;;;;;;;;4988402;28;20025;-70
2023/05/01 14:25:21;;;;;;;3.75;2.60;;;;;;;;;;4991554;28;20042;-68
2023/05/01 14:27:47;;;;;;;4.95;2.95;;;;;;;;;;4987126;28;20029;-70
2023/05/01 14:30:23;;;;;;;3.45;2.70;;;;;;;;;;4990962;28;20042;-70
2023/05/01 14:32:49;;;;;;;6.50;3.00;;;;;;;;;;4988832;28;20030;-72
2023/05/01 14:35:15;;;;;;;3.63;2.53;;;;;;;;;;4986686;28;20498;-69
2023/05/01 14:37:41;;;;;;;4.10;2.38;;;;;;;;;;4990545;28;21293;-70
2023/05/01 14:40:11;;;;;;;5.95;2.45;;;;;;;;;;5020627;28;20030;-70
2023/05/01 14:42:49;;;;;;;3.58;2.45;;;;;;;;;;4986753;28;20062;-70
2023/05/01 14:45:15;;;;;;;5.38;2.60;;;;;;;;;;4987348;28;20038;-70
2023/05/01 14:47:46;;;;;;;6.70;3.40;;;;;;;;;;5001763;28;20042;-70